Ever Ulysses — 9V7962 — position and weather

sailwx.info

Track history (hours):
 
Tides and Currents Weather Stations Pressure Air Temp Water Temp Dewpoint Dewpoint Depression Visibility Wind Speed Wind Dir Waves Ship Positions

Ever Ulysses

Last reported at 2016-May-05 23:33 UTC. Time now 2016-May-05 23:50 UTC.
Position N 22°08' E 114°22'.

Length 285 m; draft 9.5 m.

Type: Cargo ship. MMSI: 564442000.

Date/timePositionNaut miles runAvg speedWind from/ knotsBaromVisibWave heightAir tempDewpointWater temp
2016-May-05 23:33N 22°08' E 114°22'1413.3
2016-May-05 22:32N 22°08' E 114°37'20813.0
2016-May-05 06:33N 23°44' E 117°57'1414.1
2016-May-05 05:33N 23°56' E 118°05'1514.5
2016-May-05 04:33N 24°09' E 118°12'1212.3
2016-May-05 03:33N 24°21' E 118°09'9 9.5
2016-May-05 02:33N 24°27' E 118°00'0 0.3
2016-May-05 01:32N 24°27' E 118°00'0 0.0
2016-May-05 00:32N 24°27' E 118°00'0 0.0
2016-May-04 23:32N 24°27' E 118°00'0 0.0
2016-May-04 22:32N 24°27' E 118°00'0 0.0
2016-May-04 21:32N 24°27' E 118°00'0 0.0
2016-May-04 20:32N 24°27' E 118°00'0 0.0
2016-May-04 19:32N 24°27' E 118°00'0 0.0
2016-May-04 18:32N 24°27' E 118°00'0 0.0
2016-May-04 17:32N 24°27' E 118°00'0 0.0
2016-May-04 16:32N 24°27' E 118°00'0 0.0
2016-May-04 15:32N 24°27' E 118°00'0 0.0
2016-May-04 14:32N 24°27' E 118°00'0 0.0
2016-May-04 13:32N 24°27' E 118°00'0 0.0
2016-May-04 12:32N 24°27' E 118°00'0 0.0
2016-May-04 11:32N 24°27' E 118°00'0 0.0
2016-May-04 10:32N 24°27' E 118°00'0 0.0
2016-May-04 09:29N 24°27' E 118°00'0 0.0
2016-May-04 08:32N 24°27' E 118°00'5 4.9
2016-May-04 07:33N 24°25' E 118°05'10 9.9
2016-May-04 06:33N 24°19' E 118°14'9 9.5
2016-May-04 05:33N 24°21' E 118°24'2 1.4
2016-May-04 04:26N 24°21' E 118°26'0 0.0
2016-May-04 02:32N 24°21' E 118°26'0 0.0
2016-May-04 00:23N 24°21' E 118°26'0 0.2
2016-May-03 23:14N 24°21' E 118°26'0 0.1
2016-May-03 22:26N 24°21' E 118°26'0 0.1
2016-May-03 21:32N 24°21' E 118°26'0 0.0
2016-May-03 19:32N 24°21' E 118°26'0 0.0
2016-May-03 18:32N 24°21' E 118°26'0 0.1
2016-May-03 17:32N 24°21' E 118°26'0 0.1
2016-May-03 16:32N 24°21' E 118°26'0 0.1
2016-May-03 15:32N 24°21' E 118°26'0 0.1
2016-May-03 14:33N 24°21' E 118°26'1010.3
2016-May-03 13:33N 24°24' E 118°37'1313.5
2016-May-03 12:33N 24°29' E 118°51'1313.4
2016-May-03 11:33N 24°33' E 119°05'1312.7
2016-May-03 10:33N 24°37' E 119°18'1211.9
2016-May-03 09:33N 24°40' E 119°31'1211.5
2016-May-03 08:31N 24°43' E 119°43'1111.4
2016-May-03 07:33N 24°47' E 119°55'  
2016-Apr-30 11:32N 33°33' E 129°03'1515.4
2016-Apr-30 10:33N 33°43' E 129°16'  
Track history (hours):
 
Tides and Currents Weather Stations Pressure Air Temp Water Temp Dewpoint Dewpoint Depression Visibility Wind Speed Wind Dir Waves Ship Positions

Ever Ulysses

Last reported at 2016-May-05 23:33 UTC. Time now 2016-May-05 23:50 UTC.
Position N 22°08' E 114°22'.

Length 285 m; draft 9.5 m.

Type: Cargo ship. MMSI: 564442000.

Date/timePositionNaut miles runAvg speedWind from/ knotsBaromVisibWave heightAir tempDewpointWater temp
2016-May-05 23:33N 22°08' E 114°22'1413.3
2016-May-05 22:32N 22°08' E 114°37'20813.0
2016-May-05 06:33N 23°44' E 117°57'1414.1
2016-May-05 05:33N 23°56' E 118°05'1514.5
2016-May-05 04:33N 24°09' E 118°12'1212.3
2016-May-05 03:33N 24°21' E 118°09'9 9.5
2016-May-05 02:33N 24°27' E 118°00'0 0.3
2016-May-05 01:32N 24°27' E 118°00'0 0.0
2016-May-05 00:32N 24°27' E 118°00'0 0.0
2016-May-04 23:32N 24°27' E 118°00'0 0.0
2016-May-04 22:32N 24°27' E 118°00'0 0.0
2016-May-04 21:32N 24°27' E 118°00'0 0.0
2016-May-04 20:32N 24°27' E 118°00'0 0.0
2016-May-04 19:32N 24°27' E 118°00'0 0.0
2016-May-04 18:32N 24°27' E 118°00'0 0.0
2016-May-04 17:32N 24°27' E 118°00'0 0.0
2016-May-04 16:32N 24°27' E 118°00'0 0.0
2016-May-04 15:32N 24°27' E 118°00'0 0.0
2016-May-04 14:32N 24°27' E 118°00'0 0.0
2016-May-04 13:32N 24°27' E 118°00'0 0.0
2016-May-04 12:32N 24°27' E 118°00'0 0.0
2016-May-04 11:32N 24°27' E 118°00'0 0.0
2016-May-04 10:32N 24°27' E 118°00'0 0.0
2016-May-04 09:29N 24°27' E 118°00'0 0.0
2016-May-04 08:32N 24°27' E 118°00'5 4.9
2016-May-04 07:33N 24°25' E 118°05'10 9.9
2016-May-04 06:33N 24°19' E 118°14'9 9.5
2016-May-04 05:33N 24°21' E 118°24'2 1.4
2016-May-04 04:26N 24°21' E 118°26'0 0.0
2016-May-04 02:32N 24°21' E 118°26'0 0.0
2016-May-04 00:23N 24°21' E 118°26'0 0.2
2016-May-03 23:14N 24°21' E 118°26'0 0.1
2016-May-03 22:26N 24°21' E 118°26'0 0.1
2016-May-03 21:32N 24°21' E 118°26'0 0.0
2016-May-03 19:32N 24°21' E 118°26'0 0.0
2016-May-03 18:32N 24°21' E 118°26'0 0.1
2016-May-03 17:32N 24°21' E 118°26'0 0.1
2016-May-03 16:32N 24°21' E 118°26'0 0.1
2016-May-03 15:32N 24°21' E 118°26'0 0.1
2016-May-03 14:33N 24°21' E 118°26'1010.3
2016-May-03 13:33N 24°24' E 118°37'1313.5
2016-May-03 12:33N 24°29' E 118°51'1313.4
2016-May-03 11:33N 24°33' E 119°05'1312.7
2016-May-03 10:33N 24°37' E 119°18'1211.9
2016-May-03 09:33N 24°40' E 119°31'1211.5
2016-May-03 08:31N 24°43' E 119°43'1111.4
2016-May-03 07:33N 24°47' E 119°55'  
2016-Apr-30 11:32N 33°33' E 129°03'1515.4
2016-Apr-30 10:33N 33°43' E 129°16'  

Dump ship's entire track history